Terminal Aerodrome Forecast
Issued by NWS Shreveport, LA

Home | Current Version | Previous Version | Text Only | Print | Product List | Glossary On
Versions: 1 2 3 4 5 6 7 8 9 10 11 12 13 14
546
FTUS44 KSHV 260542
TAFSHV
TAF
KSHV 260542Z 2606/2706 17011KT P6SM BKN280
      TEMPO 2612/2614 20013G18KT OVC015
     FM261400 20013G20KT P6SM OVC015
     FM261900 20015G24KT P6SM FEW030 BKN045
     FM270100 19012KT P6SM OVC050
     FM270500 19008KT P6SM OVC025=

USA.gov is the U.S. government's official web portal to all federal, state and local government web resources and services.